Hollis, Oklahoma
Current Conditions -  °F | °C
As of 1:53 AM on Friday 24 Oct 2014 (Local Time) from KCDS Reporting Station
Haze Haze  
Wind Chill: 16°   Ceiling: Unl
Heat Index: 16°   Visibility: 6mi
Dew Point: 14°   Wind: 7mph
Humidity: 93%   Direction: 150°SSE
Pressure: 30.1"   Gusts: NA
Location:  34.69°N, 99.91°W
Report Text: KCDS 240653Z AUTO 15006KT 6SM BR CLR 16/14 A3010 RMK AO2 SLP173 T01560144
Loading
Personal Weather Stations






























Interactive Weather Map
Tropical Storm Tracking
New forecast layout! Learn more

10-Day Weather Forecast

Advertisements
Track Severe Weather on mobile